Terminal Aerodrome Forecast
Issued by NWS Binghamton, NY

Home | Current Version | Previous Version | Text Only | Print | Product List | Glossary On
Versions: 1 2 3 4 5 6 7 8 9 10 11 12 13 14 15 16
000
FTUS41 KBGM 042340
TAFSYR
TAF
KSYR 042340Z 0500/0524 27005KT P6SM OVC080
      TEMPO 0500/0504 -SHRA
     FM050400 27007KT P6SM BKN080 BKN250
     FM051200 36007KT P6SM BKN250=

USA.gov is the U.S. government's official web portal to all federal, state and local government web resources and services.